Time;durP1;ratioP1;P1;durP2;ratioP2;P2;SDS_P1;SDS_P2;PMS_P1;PMS_P2;Temp;Humidity;BMP_temperature;BMP_pressure;BME280_temperature;BME280_humidity;BME280_pressure;Samples;Min_cycle;Max_cycle;Signal;HPM_P1;HPM_P2
2020/12/18 00:01:41;;;;;;;37.50;22.13;;;;;;;0.38;88.57;97524.86;1766461;81;21168;-83
2020/12/18 00:04:16;;;;;;;24.63;12.93;;;;;;;0.34;88.45;97519.22;1766180;81;21494;-83
2020/12/18 00:06:44;;;;;;;34.60;21.25;;;;;;;0.14;88.34;97512.58;1766274;81;21145;-83
2020/12/18 00:09:11;;;;;;;27.60;16.10;;;;;;;0.14;88.34;97512.58;1766240;81;21315;-83
2020/12/18 00:11:38;;;;;;;24.43;14.20;;;;;;;0.19;88.32;97534.97;1770361;80;21146;-83
2020/12/18 00:14:05;;;;;;;23.75;11.35;;;;;;;0.19;88.38;97523.23;1801233;79;21285;-83
2020/12/18 00:16:34;;;;;;;28.42;18.15;;;;;;;0.20;88.55;97531.86;1801302;79;21128;-83
2020/12/18 00:19:01;;;;;;;27.13;17.50;;;;;;;0.18;88.53;97535.16;1801747;79;21511;-83
2020/12/18 00:21:28;;;;;;;29.23;17.87;;;;;;;0.16;88.62;97544.98;1801910;79;21153;-83
2020/12/18 00:23:55;;;;;;;27.10;17.70;;;;;;;0.15;88.40;97549.89;1802280;79;21143;-83
2020/12/18 00:26:22;;;;;;;24.70;16.12;;;;;;;0.17;88.34;97550.00;1802174;80;21281;-83
2020/12/18 00:28:49;;;;;;;22.30;13.20;;;;;;;0.19;88.30;97553.72;1802171;80;21269;-83
2020/12/18 00:31:17;;;;;;;29.20;18.85;;;;;;;0.20;88.26;97561.84;1802029;80;21170;-83
2020/12/18 00:33:44;;;;;;;24.55;14.05;;;;;;;0.21;88.19;97563.45;1802077;79;21468;-83
2020/12/18 00:36:12;;;;;;;20.57;11.35;;;;;;;0.21;88.17;97566.06;1802035;79;21491;-83
2020/12/18 00:38:40;;;;;;;26.45;13.75;;;;;;;0.16;88.24;97560.63;1802054;79;21570;-82
2020/12/18 00:41:07;;;;;;;23.83;13.30;;;;;;;0.07;88.34;97548.70;1801928;79;21100;-82
2020/12/18 00:43:35;;;;;;;27.15;16.97;;;;;;;0.10;88.40;97563.47;1801945;79;21156;-83
2020/12/18 00:46:07;;;;;;;27.48;16.05;;;;;;;0.08;88.43;97562.85;1802018;79;21091;-83
2020/12/18 00:48:34;;;;;;;34.70;20.55;;;;;;;0.08;88.58;97560.25;1801990;79;21139;-83
2020/12/18 00:51:02;;;;;;;33.92;20.00;;;;;;;0.11;88.45;97567.69;1802010;79;21488;-83
2020/12/18 00:53:29;;;;;;;32.65;18.42;;;;;;;0.09;88.32;97568.38;1801939;79;21131;-83
2020/12/18 00:55:57;;;;;;;28.02;18.00;;;;;;;0.08;88.23;97567.27;1802172;79;21130;-83
2020/12/18 00:58:24;;;;;;;23.92;13.58;;;;;;;0.06;88.18;97565.34;1802067;79;21170;-83
2020/12/18 01:00:51;;;;;;;17.80;11.22;;;;;;;0.07;88.30;97565.66;1801988;79;21477;-83
2020/12/18 01:03:18;;;;;;;33.53;21.05;;;;;;;0.08;88.40;97573.78;1802063;79;21100;-83
2020/12/18 01:05:45;;;;;;;25.95;16.50;;;;;;;0.09;88.37;97566.27;1802082;79;21115;-83
2020/12/18 01:08:12;;;;;;;19.75;12.05;;;;;;;0.08;88.46;97569.37;1801960;79;21136;-83
2020/12/18 01:10:38;;;;;;;29.57;15.55;;;;;;;0.10;88.50;97578.30;1802074;79;21160;-83
2020/12/18 01:13:05;;;;;;;20.77;12.03;;;;;;;0.12;88.53;97576.31;1801921;80;21151;-83
2020/12/18 01:15:32;;;;;;;25.62;15.32;;;;;;;0.15;88.66;97572.05;1801966;79;21088;-83
2020/12/18 01:17:59;;;;;;;33.53;18.62;;;;;;;0.21;88.58;97577.30;1801918;79;21246;-83
2020/12/18 01:20:26;;;;;;;25.95;16.52;;;;;;;0.20;88.38;97577.49;1801951;79;21157;-83
2020/12/18 01:22:53;;;;;;;22.52;14.30;;;;;;;0.22;88.33;97576.80;1801920;80;21088;-83
2020/12/18 01:25:20;;;;;;;26.68;17.42;;;;;;;0.23;88.28;97583.63;1801955;79;21491;-83
2020/12/18 01:27:47;;;;;;;25.08;15.88;;;;;;;0.28;88.31;97576.87;1802060;80;21510;-83
2020/12/18 01:30:14;;;;;;;22.40;14.28;;;;;;;0.34;88.25;97589.64;1801923;79;21127;-83
2020/12/18 01:32:41;;;;;;;25.70;16.45;;;;;;;0.39;88.18;97575.52;1802026;79;21502;-83
2020/12/18 01:35:09;;;;;;;22.95;14.75;;;;;;;0.44;88.09;97577.59;1801943;80;21130;-83
2020/12/18 01:37:36;;;;;;;24.43;15.70;;;;;;;0.48;88.02;97580.11;1802226;79;21154;-83
2020/12/18 01:40:04;;;;;;;24.10;14.83;;;;;;;0.48;87.94;97582.22;1801995;79;21131;-83
2020/12/18 01:42:31;;;;;;;25.97;15.95;;;;;;;0.52;87.85;97588.66;1801904;79;21130;-83
2020/12/18 01:44:58;;;;;;;24.67;15.30;;;;;;;0.51;87.78;97579.23;1802016;79;21130;-83
2020/12/18 01:47:32;;;;;;;22.80;13.43;;;;;;;0.57;87.74;97583.70;1801965;79;21147;-83
2020/12/18 01:50:03;;;;;;;25.90;15.15;;;;;;;0.58;87.67;97580.09;1801912;79;21160;-82
2020/12/18 01:52:31;;;;;;;25.65;15.95;;;;;;;0.62;87.66;97577.09;1802313;80;21440;-82
2020/12/18 01:55:06;;;;;;;21.52;13.58;;;;;;;0.66;87.60;97586.14;1801922;80;21116;-82
2020/12/18 01:57:33;;;;;;;27.55;15.13;;;;;;;0.68;87.58;97585.45;1802001;79;21096;-82
2020/12/18 02:00:04;;;;;;;24.40;15.65;;;;;;;0.71;87.55;97587.70;1801968;79;21496;-82
2020/12/18 02:02:32;;;;;;;22.22;13.58;;;;;;;0.74;87.47;97585.51;1802258;79;21151;-82
2020/12/18 02:04:59;;;;;;;25.88;15.40;;;;;;;0.77;87.45;97584.31;1801899;79;21128;-82
2020/12/18 02:07:30;;;;;;;24.40;14.93;;;;;;;0.81;87.39;97581.62;1801998;79;21099;-82
2020/12/18 02:09:57;;;;;;;27.25;15.80;;;;;;;0.84;87.35;97582.53;1802096;80;21131;-82
2020/12/18 02:12:25;;;;;;;23.22;13.35;;;;;;;0.87;87.27;97589.50;1801844;79;21147;-82
2020/12/18 02:14:53;;;;;;;19.45;12.95;;;;;;;0.87;87.19;97576.95;1801930;80;21498;-82
2020/12/18 02:17:20;;;;;;;18.70;12.33;;;;;;;0.89;87.10;97586.20;1802124;80;21482;-82
2020/12/18 02:19:53;;;;;;;19.30;13.43;;;;;;;0.91;87.01;97591.22;1801171;79;21149;-83
2020/12/18 02:22:24;;;;;;;23.00;11.95;;;;;;;0.89;86.94;97588.80;1801055;79;21277;-82
2020/12/18 02:25:06;;;;;;;23.07;14.18;;;;;;;0.84;86.87;97579.42;1801083;79;21246;-82
2020/12/18 02:27:34;;;;;;;19.02;10.78;;;;;;;0.80;86.96;97586.53;1801383;80;21120;-82
2020/12/18 02:30:01;;;;;;;22.05;14.43;;;;;;;0.77;87.06;97579.09;1801222;79;21131;-83
2020/12/18 02:32:28;;;;;;;22.37;12.10;;;;;;;0.77;87.16;97586.92;1801227;79;21143;-82
2020/12/18 02:34:55;;;;;;;18.62;10.90;;;;;;;0.76;87.26;97589.23;1801035;79;21290;-83
2020/12/18 02:37:22;;;;;;;21.20;13.28;;;;;;;0.77;87.20;97583.01;1801063;80;21127;-82
2020/12/18 02:39:49;;;;;;;16.32;9.20;;;;;;;0.79;87.35;97590.95;1801081;80;21491;-83
2020/12/18 02:42:16;;;;;;;17.75;12.10;;;;;;;0.79;87.41;97589.64;1800962;80;21284;-83
2020/12/18 02:44:43;;;;;;;17.82;10.90;;;;;;;0.80;87.39;97585.23;1801364;80;21480;-82
2020/12/18 02:47:11;;;;;;;19.20;12.53;;;;;;;0.82;87.44;97589.75;1801079;80;21618;-82
2020/12/18 02:49:38;;;;;;;16.93;11.12;;;;;;;0.85;87.43;97591.50;1801096;79;21136;-82
2020/12/18 02:52:05;;;;;;;13.40;7.65;;;;;;;0.87;87.42;97589.50;1800987;79;21171;-82
2020/12/18 02:54:32;;;;;;;17.32;10.90;;;;;;;0.86;87.51;97585.78;1801196;80;21131;-82
2020/12/18 02:56:59;;;;;;;16.65;10.53;;;;;;;0.89;87.52;97584.09;1801264;80;21126;-82
2020/12/18 02:59:25;;;;;;;17.65;10.70;;;;;;;0.90;87.43;97596.14;1800987;79;21129;-83
2020/12/18 03:01:52;;;;;;;16.10;10.18;;;;;;;0.94;87.43;97589.52;1769545;81;21113;-83
2020/12/18 03:04:19;;;;;;;15.80;8.60;;;;;;;0.96;87.40;97586.72;1801020;80;21447;-83
2020/12/18 03:06:46;;;;;;;18.65;10.32;;;;;;;0.96;87.38;97575.77;1794841;80;21115;-82
2020/12/18 03:09:14;;;;;;;20.77;12.60;;;;;;;0.97;87.40;97591.74;1795175;80;21629;-83
2020/12/18 03:11:41;;;;;;;17.20;11.68;;;;;;;0.97;87.32;97589.63;1790364;80;21558;-83
2020/12/18 03:14:08;;;;;;;19.15;11.43;;;;;;;0.98;87.31;97588.13;1789054;80;21107;-82
2020/12/18 03:16:38;;;;;;;12.18;8.63;;;;;;;1.00;87.26;97587.46;1787130;80;21535;-83
2020/12/18 03:19:06;;;;;;;18.40;11.53;;;;;;;1.01;87.23;97591.69;1787232;80;21166;-82
2020/12/18 03:21:33;;;;;;;16.48;11.12;;;;;;;1.02;87.27;97590.69;1787035;80;21147;-83
2020/12/18 03:24:01;;;;;;;19.00;12.05;;;;;;;1.03;87.23;97592.30;1787163;80;21528;-83
2020/12/18 03:26:27;;;;;;;16.02;10.08;;;;;;;1.07;87.22;97602.65;1787066;80;21146;-82
2020/12/18 03:28:55;;;;;;;16.73;11.63;;;;;;;1.08;87.19;97593.81;1787250;80;21167;-83
2020/12/18 03:31:21;;;;;;;16.37;9.50;;;;;;;1.09;87.15;97598.53;1787131;80;21484;-83
2020/12/18 03:33:49;;;;;;;18.40;11.25;;;;;;;1.10;87.14;97590.51;1787237;80;21531;-82
2020/12/18 03:36:16;;;;;;;15.20;9.48;;;;;;;1.10;87.05;97599.64;1787315;80;21127;-83
2020/12/18 03:38:42;;;;;;;15.95;8.73;;;;;;;1.10;87.10;97599.64;1787278;80;21158;-82
2020/12/18 03:41:09;;;;;;;17.57;9.58;;;;;;;1.08;87.09;97595.12;1787108;80;21169;-82
2020/12/18 03:43:36;;;;;;;13.18;9.15;;;;;;;1.07;87.10;97599.23;1786860;80;21111;-82
2020/12/18 03:46:03;;;;;;;12.28;7.33;;;;;;;1.07;87.07;97588.79;1787325;80;21140;-82
2020/12/18 03:48:30;;;;;;;14.75;8.15;;;;;;;1.05;87.13;97581.16;1787233;80;21112;-82
2020/12/18 03:50:57;;;;;;;14.80;10.50;;;;;;;1.08;87.31;97585.98;1787193;80;21173;-82
2020/12/18 03:53:25;;;;;;;13.35;7.08;;;;;;;1.13;87.39;97582.81;1787256;80;21556;-83
2020/12/18 03:55:52;;;;;;;14.28;9.55;;;;;;;1.24;87.48;97580.12;1787231;80;21155;-82
2020/12/18 03:58:19;;;;;;;11.10;7.33;;;;;;;1.27;87.32;97562.75;1787277;80;21127;-82
2020/12/18 04:00:46;;;;;;;13.20;7.60;;;;;;;1.38;87.51;97560.88;1787191;80;21492;-82
2020/12/18 04:03:13;;;;;;;15.23;7.87;;;;;;;1.40;87.13;97558.38;1787391;80;21136;-82
2020/12/18 04:05:40;;;;;;;10.72;5.90;;;;;;;1.38;87.15;97560.38;1787197;80;21504;-82
2020/12/18 04:08:06;;;;;;;15.72;9.63;;;;;;;1.39;87.04;97574.25;1787335;80;21531;-82
2020/12/18 04:10:35;;;;;;;13.75;7.80;;;;;;;1.38;87.01;97566.11;1787185;80;21184;-82
2020/12/18 04:13:02;;;;;;;17.65;7.80;;;;;;;1.39;87.06;97568.52;1786793;80;21157;-82
2020/12/18 04:15:29;;;;;;;13.10;7.92;;;;;;;1.39;87.07;97541.59;1787202;80;21156;-83
2020/12/18 04:17:56;;;;;;;15.00;8.48;;;;;;;1.42;87.20;97558.20;1787384;80;21167;-82
2020/12/18 04:20:23;;;;;;;12.30;6.47;;;;;;;1.45;87.34;97552.58;1787620;80;21136;-82
2020/12/18 04:22:49;;;;;;;12.13;7.50;;;;;;;1.49;87.42;97549.87;1787848;80;21135;-82
2020/12/18 04:25:16;;;;;;;10.28;6.37;;;;;;;1.55;87.51;97548.26;1787986;80;21298;-82
2020/12/18 04:27:43;;;;;;;9.35;6.03;;;;;;;1.58;87.50;97561.77;1787932;80;21278;-83
2020/12/18 04:30:10;;;;;;;13.32;8.78;;;;;;;1.61;87.47;97560.55;1787833;80;21120;-82
2020/12/18 04:32:37;;;;;;;16.17;10.32;;;;;;;1.67;87.61;97567.59;1787930;80;21143;-82
2020/12/18 04:35:04;;;;;;;9.15;6.00;;;;;;;1.70;87.61;97562.80;1787860;80;21282;-83
2020/12/18 04:37:31;;;;;;;17.35;7.72;;;;;;;1.73;87.53;97566.31;1787781;80;21634;-82
2020/12/18 04:39:58;;;;;;;16.52;9.43;;;;;;;1.75;87.50;97575.27;1787997;80;21281;-83
2020/12/18 04:42:26;;;;;;;13.98;7.12;;;;;;;1.74;87.42;97574.96;1787145;80;21128;-83
2020/12/18 04:44:53;;;;;;;10.23;6.87;;;;;;;1.71;87.35;97573.55;1787788;80;21135;-83
2020/12/18 04:47:22;;;;;;;18.80;10.23;;;;;;;1.71;87.37;97567.52;1787864;80;21281;-82
2020/12/18 04:49:50;;;;;;;16.50;10.72;;;;;;;1.70;87.28;97570.64;1787709;80;21522;-82
2020/12/18 04:52:18;;;;;;;17.85;9.20;;;;;;;1.66;87.19;97582.47;1787726;80;21152;-82
2020/12/18 04:54:48;;;;;;;16.70;9.55;;;;;;;1.64;87.35;97577.95;1787551;80;21515;-83
2020/12/18 04:57:17;;;;;;;16.12;10.00;;;;;;;1.66;87.69;97570.70;1787735;80;21162;-83
2020/12/18 04:59:45;;;;;;;19.35;10.90;;;;;;;1.72;87.84;97585.62;1787745;80;21160;-83
2020/12/18 05:02:12;;;;;;;14.35;8.68;;;;;;;1.83;88.07;97584.71;1787727;80;21289;-83
2020/12/18 05:04:42;;;;;;;16.65;10.43;;;;;;;1.89;88.19;97587.86;1788038;80;21132;-82
2020/12/18 05:07:10;;;;;;;17.48;11.00;;;;;;;1.93;88.10;97590.38;1787934;80;21136;-82
2020/12/18 05:09:37;;;;;;;19.77;12.68;;;;;;;1.93;87.77;97590.38;1787814;80;21309;-83
2020/12/18 05:12:09;;;;;;;23.35;12.82;;;;;;;1.88;87.43;97596.70;1787198;80;21166;-83
2020/12/18 05:14:36;;;;;;;18.70;10.35;;;;;;;1.85;87.32;97602.34;1787773;80;21614;-83
2020/12/18 05:17:09;;;;;;;13.43;9.20;;;;;;;1.87;87.55;97605.05;1787761;80;21664;-83
2020/12/18 05:19:39;;;;;;;17.30;9.48;;;;;;;1.95;87.70;97607.47;1787874;80;21298;-83
2020/12/18 05:22:10;;;;;;;14.28;10.03;;;;;;;2.02;87.57;97612.72;1787791;80;21279;-83
2020/12/18 05:24:37;;;;;;;;;;;;;;;2.03;87.49;97613.02;1790534;80;21266;-83
2020/12/18 05:27:06;;;;;;;13.32;7.28;;;;;;;2.05;87.58;97609.20;1787801;80;20159;-83
2020/12/18 05:29:38;;;;;;;17.32;10.10;;;;;;;2.15;87.79;97612.74;1787673;80;21568;-83
2020/12/18 05:32:05;;;;;;;14.53;8.75;;;;;;;2.20;87.60;97619.98;1787728;80;21484;-83
2020/12/18 05:34:32;;;;;;;18.37;10.25;;;;;;;2.13;87.17;97619.19;1787738;80;21673;-83
2020/12/18 05:37:01;;;;;;;14.70;9.35;;;;;;;2.06;87.06;97625.70;1787669;80;21273;-83
2020/12/18 05:39:28;;;;;;;13.88;9.05;;;;;;;2.05;87.08;97632.73;1787787;80;21282;-83
2020/12/18 05:42:02;;;;;;;15.13;8.80;;;;;;;2.04;87.07;97624.59;1787313;80;21167;-83
2020/12/18 05:44:32;;;;;;;15.63;8.93;;;;;;;2.06;87.08;97625.19;1787998;80;21285;-83
2020/12/18 05:47:08;;;;;;;16.95;9.58;;;;;;;2.12;87.30;97631.45;1787875;80;21301;-83
2020/12/18 05:49:39;;;;;;;18.10;10.93;;;;;;;2.15;87.19;97619.28;1787763;80;21626;-83
2020/12/18 05:52:14;;;;;;;13.70;9.45;;;;;;;2.13;87.04;97625.22;1786860;80;21523;-83
2020/12/18 05:54:40;;;;;;;16.30;9.65;;;;;;;2.08;86.99;97632.84;1786245;80;21519;-83
2020/12/18 05:57:14;;;;;;;14.38;8.20;;;;;;;2.07;86.99;97628.11;1787625;80;21527;-83
2020/12/18 05:59:47;;;;;;;18.62;8.83;;;;;;;2.09;87.19;97631.83;1787860;80;21614;-82
2020/12/18 06:02:17;;;;;;;17.95;10.63;;;;;;;2.15;87.19;97639.41;1787691;80;21115;-82
2020/12/18 06:04:46;;;;;;;18.37;10.70;;;;;;;2.15;86.99;97634.17;1787852;80;21135;-82
2020/12/18 06:07:14;;;;;;;17.10;9.63;;;;;;;2.10;86.77;97629.52;1787765;80;21135;-82
2020/12/18 06:09:45;;;;;;;16.37;8.83;;;;;;;2.05;86.80;97622.78;1787779;80;21108;-82
2020/12/18 06:12:13;;;;;;;12.80;7.28;;;;;;;2.00;86.66;97633.04;1787398;80;21290;-82
2020/12/18 06:14:42;;;;;;;15.70;9.18;;;;;;;1.98;86.85;97631.94;1787670;80;21285;-82
2020/12/18 06:17:13;;;;;;;15.72;7.85;;;;;;;1.93;86.72;97630.90;1787667;80;21167;-82
2020/12/18 06:19:43;;;;;;;18.25;11.48;;;;;;;1.90;86.90;97626.88;1786939;80;21166;-82
2020/12/18 06:22:13;;;;;;;15.23;8.20;;;;;;;1.92;86.96;97644.98;1785249;80;21084;-82
2020/12/18 06:24:43;;;;;;;12.07;6.95;;;;;;;1.93;87.21;97633.52;1785082;80;21140;-83
2020/12/18 06:27:15;;;;;;;18.03;9.70;;;;;;;2.00;87.45;97640.89;1785220;80;21623;-83
2020/12/18 06:29:42;;;;;;;17.57;8.15;;;;;;;2.03;87.40;97645.21;1785095;80;21142;-83
2020/12/18 06:32:30;;;;;;;11.85;7.70;;;;;;;2.03;87.26;97648.33;1784896;80;21665;-83
2020/12/18 06:35:28;;;;;;;13.70;7.67;;;;;;;2.03;87.14;97641.79;1785213;80;21140;-83
2020/12/18 06:37:55;;;;;;;14.10;8.18;;;;;;;2.03;87.11;97645.72;1784875;80;21665;-83
2020/12/18 06:40:34;;;;;;;18.87;9.20;;;;;;;2.04;87.16;97653.86;1785139;80;21173;-83
2020/12/18 06:43:01;;;;;;;15.58;8.48;;;;;;;2.06;87.24;97657.08;1784484;80;21116;-83
2020/12/18 06:45:28;;;;;;;7.83;5.45;;;;;;;2.06;87.16;97646.62;1784893;80;21515;-83
2020/12/18 06:47:55;;;;;;;14.50;9.28;;;;;;;2.06;87.15;97654.47;1784842;80;21186;-83
2020/12/18 06:50:23;;;;;;;8.33;6.08;;;;;;;2.05;87.16;97648.94;1784857;80;21143;-83
2020/12/18 06:52:55;;;;;;;15.18;8.65;;;;;;;2.07;87.29;97654.27;1784728;80;21124;-83
2020/12/18 06:55:31;;;;;;;12.25;6.95;;;;;;;2.11;87.37;97659.09;1785006;80;21140;-83
2020/12/18 06:58:12;;;;;;;12.58;6.50;;;;;;;2.14;87.30;97662.14;1784745;80;21622;-82
2020/12/18 07:00:57;;;;;;;15.88;9.85;;;;;;;2.16;87.23;97667.97;1785482;80;21139;-83
2020/12/18 07:03:37;;;;;;;13.68;8.55;;;;;;;2.16;87.24;97670.59;1784756;80;21160;-83
2020/12/18 07:06:09;;;;;;;13.60;8.25;;;;;;;2.21;87.32;97672.60;1785269;80;21128;-83
2020/12/18 07:08:39;;;;;;;13.18;6.92;;;;;;;2.24;87.39;97678.73;1784920;80;21136;-83
2020/12/18 07:11:15;;;;;;;15.53;7.90;;;;;;;2.25;87.41;97673.33;1784942;80;21149;-83
2020/12/18 07:13:47;;;;;;;16.70;8.28;;;;;;;2.28;87.52;97671.63;1784142;80;21089;-83
2020/12/18 07:16:26;;;;;;;16.17;9.50;;;;;;;2.31;87.58;97667.80;1784976;80;21638;-83
2020/12/18 07:18:59;;;;;;;14.33;9.78;;;;;;;2.32;87.53;97670.71;1761430;80;21458;-83
2020/12/18 07:21:27;;;;;;;13.62;8.15;;;;;;;2.32;87.55;97675.95;1786684;80;21131;-83
2020/12/18 07:23:54;;;;;;;13.53;7.75;;;;;;;2.33;87.60;97674.44;1787027;80;21523;-83
2020/12/18 07:26:22;;;;;;;16.42;8.78;;;;;;;2.35;87.59;97672.92;1787047;80;21472;-83
2020/12/18 07:28:50;;;;;;;13.72;7.28;;;;;;;2.34;87.60;97670.81;1787097;80;21128;-83
2020/12/18 07:31:26;;;;;;;15.18;9.08;;;;;;;2.34;87.60;97670.81;1787126;80;21168;-83
2020/12/18 07:33:59;;;;;;;15.05;9.33;;;;;;;2.36;87.65;97673.22;1787095;80;21175;-83
2020/12/18 07:36:29;;;;;;;14.13;7.62;;;;;;;2.33;87.67;97683.59;1787075;80;21127;-83
2020/12/18 07:38:57;;;;;;;15.67;8.30;;;;;;;2.34;87.71;97675.23;1787443;80;21147;-83
2020/12/18 07:41:29;;;;;;;18.82;10.10;;;;;;;2.34;87.70;97683.89;1786776;80;21151;-83
2020/12/18 07:44:06;;;;;;;12.43;7.00;;;;;;;2.34;87.66;97683.09;1787081;80;21100;-83
2020/12/18 07:46:34;;;;;;;12.98;7.70;;;;;;;2.34;87.79;97685.70;1786465;80;21540;-83
2020/12/18 07:49:12;;;;;;;12.50;7.60;;;;;;;2.35;87.82;97695.97;1787065;80;21144;-83
2020/12/18 07:51:40;;;;;;;14.60;7.20;;;;;;;2.35;87.95;97688.62;1786966;80;21181;-83
2020/12/18 07:54:08;;;;;;;20.68;10.68;;;;;;;2.35;88.05;97690.73;1787158;80;21127;-83
2020/12/18 07:56:35;;;;;;;13.78;7.58;;;;;;;2.36;88.19;97696.27;1787034;80;21148;-83
2020/12/18 07:59:08;;;;;;;13.65;7.60;;;;;;;2.40;88.33;97693.28;1787046;80;21151;-83
2020/12/18 08:01:38;;;;;;;12.65;6.75;;;;;;;2.43;88.41;97695.49;1787014;80;21136;-83
2020/12/18 08:04:13;;;;;;;14.30;8.50;;;;;;;2.46;88.53;97697.20;1787371;80;21155;-83
2020/12/18 08:06:43;;;;;;;14.70;8.93;;;;;;;2.51;88.53;97694.78;1787312;80;21136;-83
2020/12/18 08:09:15;;;;;;;13.93;8.28;;;;;;;2.55;88.58;97693.90;1787229;80;21131;-83
2020/12/18 08:11:48;;;;;;;15.85;9.30;;;;;;;2.58;88.53;97692.19;1786481;80;21159;-83
2020/12/18 08:14:14;;;;;;;19.62;10.90;;;;;;;2.59;88.51;97697.72;1786859;80;21135;-83
2020/12/18 08:16:42;;;;;;;11.95;6.25;;;;;;;2.61;88.41;97704.86;1787287;80;21144;-83
2020/12/18 08:19:12;;;;;;;13.10;6.17;;;;;;;2.62;88.42;97690.27;1787193;80;21139;-83
2020/12/18 08:21:41;;;;;;;;;;;;;;;2.61;88.35;97702.25;1789844;80;21495;-83
2020/12/18 08:24:34;;;;;;;14.18;8.68;;;;;;;2.61;88.38;97712.72;1787297;80;20323;-83
2020/12/18 08:27:22;;;;;;;19.87;9.05;;;;;;;2.61;88.40;97710.91;1787194;80;21115;-83
2020/12/18 08:29:49;;;;;;;12.53;7.58;;;;;;;2.62;88.47;97714.33;1787036;80;21132;-83
2020/12/18 08:32:28;;;;;;;17.65;9.28;;;;;;;2.63;88.57;97716.74;1787352;80;21167;-83
2020/12/18 08:35:02;;;;;;;13.70;9.23;;;;;;;2.67;88.87;97720.59;1783766;80;21531;-83
2020/12/18 08:37:30;;;;;;;15.88;9.93;;;;;;;2.77;88.99;97722.80;1787262;80;21104;-83
2020/12/18 08:39:57;;;;;;;14.87;9.15;;;;;;;2.83;88.95;97716.77;1787077;80;21148;-83
2020/12/18 08:42:26;;;;;;;14.95;9.75;;;;;;;2.88;88.95;97718.27;1786613;80;21143;-83
2020/12/18 08:44:53;;;;;;;16.10;9.00;;;;;;;2.94;88.84;97725.81;1787135;80;21151;-83
2020/12/18 08:47:27;;;;;;;14.13;9.55;;;;;;;3.01;88.72;97722.70;1787171;80;21135;-83
2020/12/18 08:49:57;;;;;;;22.32;11.68;;;;;;;3.05;88.51;97727.02;1787131;80;21131;-83
2020/12/18 08:52:27;;;;;;;18.05;9.70;;;;;;;3.07;88.34;97725.81;1787210;80;21515;-83
2020/12/18 08:55:07;;;;;;;34.53;13.10;;;;;;;3.10;88.15;97724.63;1787406;80;21139;-83
2020/12/18 08:57:38;;;;;;;23.92;12.35;;;;;;;3.10;87.96;97737.72;1787439;80;21499;-83
2020/12/18 09:00:17;;;;;;;20.40;10.15;;;;;;;3.09;87.78;97740.02;1787092;80;21168;-83
2020/12/18 09:02:56;;;;;;;36.25;14.20;;;;;;;3.10;87.68;97740.34;1787143;80;21124;-83
2020/12/18 09:05:31;;;;;;;41.92;14.58;;;;;;;3.08;87.64;97741.02;1787247;80;21124;-83
2020/12/18 09:08:16;;;;;;;22.17;12.25;;;;;;;3.09;87.60;97737.39;1787297;80;21108;-83
2020/12/18 09:10:52;;;;;;;29.87;12.78;;;;;;;3.13;87.60;97738.63;1787117;80;21112;-83
2020/12/18 09:13:31;;;;;;;23.15;10.93;;;;;;;3.16;87.57;97740.83;1787034;80;21508;-83
2020/12/18 09:16:06;;;;;;;20.23;10.72;;;;;;;3.16;87.53;97747.38;1786140;80;21132;-83
2020/12/18 09:18:41;;;;;;;19.73;10.80;;;;;;;3.17;87.51;97743.75;1787311;80;21100;-83
2020/12/18 09:21:15;;;;;;;19.10;10.18;;;;;;;3.20;87.51;97734.16;1787335;80;21202;-83
2020/12/18 09:23:46;;;;;;;16.65;9.73;;;;;;;3.25;87.53;97734.38;1787822;80;21127;-83
2020/12/18 09:26:30;;;;;;;16.07;10.25;;;;;;;3.29;87.53;97732.95;1787847;80;21471;-83
2020/12/18 09:28:59;;;;;;;20.97;11.63;;;;;;;3.32;87.42;97731.23;1787755;80;21257;-83
2020/12/18 09:31:26;;;;;;;21.75;10.80;;;;;;;3.34;87.26;97734.95;1787829;80;21618;-83
2020/12/18 09:33:54;;;;;;;16.37;9.38;;;;;;;3.35;87.20;97730.81;1787566;80;21136;-83
2020/12/18 09:36:24;;;;;;;27.45;12.35;;;;;;;3.40;87.16;97728.41;1787723;80;21273;-83
2020/12/18 09:38:52;;;;;;;17.65;10.68;;;;;;;3.40;87.10;97732.34;1787624;80;21131;-83
2020/12/18 09:41:23;;;;;;;24.47;12.58;;;;;;;3.41;86.97;97741.00;1787851;80;21161;-83
2020/12/18 09:43:52;;;;;;;20.75;11.55;;;;;;;3.40;86.81;97744.13;1756706;82;21464;-84
2020/12/18 09:46:22;;;;;;;29.12;14.43;;;;;;;3.40;86.71;97745.95;1756741;81;21112;-83
2020/12/18 09:48:48;;;;;;;19.48;11.05;;;;;;;3.38;86.73;97736.98;1756889;82;21515;-83
2020/12/18 09:51:18;;;;;;;18.40;10.93;;;;;;;3.40;86.58;97738.89;1756543;82;21523;-83
2020/12/18 09:53:48;;;;;;;24.95;12.35;;;;;;;3.40;86.62;97740.20;1756847;82;21187;-84
2020/12/18 09:56:16;;;;;;;;;;;;;;;3.41;86.53;97740.50;1759190;81;21535;-83
2020/12/18 09:58:44;;;;;;;28.23;14.78;;;;;;;3.42;86.51;97741.30;1756646;81;20122;-84
2020/12/18 10:01:20;;;;;;;19.92;11.00;;;;;;;3.44;86.55;97742.70;1756659;82;21127;-83
2020/12/18 10:03:47;;;;;;;24.65;13.43;;;;;;;3.46;86.54;97745.13;1756709;81;21131;-83
2020/12/18 10:06:14;;;;;;;33.15;15.75;;;;;;;3.49;86.51;97739.45;1756533;81;21171;-83
2020/12/18 10:08:41;;;;;;;30.17;15.00;;;;;;;3.50;86.49;97740.56;1756799;82;21154;-83
2020/12/18 10:11:08;;;;;;;35.80;18.15;;;;;;;3.52;86.46;97737.26;1756548;81;21154;-83
2020/12/18 10:13:35;;;;;;;31.85;16.30;;;;;;;3.52;86.41;97742.50;1784721;80;21649;-83
2020/12/18 10:16:02;;;;;;;32.90;16.50;;;;;;;3.53;86.40;97742.80;1787713;80;21274;-83
2020/12/18 10:18:29;;;;;;;26.30;13.55;;;;;;;3.53;86.40;97741.48;1787651;80;21104;-83
2020/12/18 10:20:56;;;;;;;30.15;14.85;;;;;;;3.57;86.40;97747.12;1787627;80;21120;-84
2020/12/18 10:23:25;;;;;;;25.35;13.43;;;;;;;3.58;86.34;97746.10;1787617;80;21136;-83
2020/12/18 10:25:52;;;;;;;28.38;13.80;;;;;;;3.62;86.37;97751.73;1787708;80;21108;-83
2020/12/18 10:28:19;;;;;;;23.87;12.13;;;;;;;3.65;86.44;97746.08;1787709;80;21139;-84
2020/12/18 10:30:46;;;;;;;24.70;11.97;;;;;;;3.68;86.37;97750.42;1787568;80;21184;-83
2020/12/18 10:33:13;;;;;;;24.07;11.88;;;;;;;3.71;86.23;97749.20;1787643;80;21135;-83
2020/12/18 10:35:40;;;;;;;27.50;13.22;;;;;;;3.71;86.22;97753.13;1787580;80;21134;-83
2020/12/18 10:38:07;;;;;;;24.93;13.03;;;;;;;3.72;86.23;97755.55;1787693;80;21143;-83
2020/12/18 10:40:34;;;;;;;25.30;12.28;;;;;;;3.76;86.21;97753.31;1787693;80;21151;-83
2020/12/18 10:43:02;;;;;;;20.00;10.78;;;;;;;3.76;86.11;97754.11;1787111;80;21504;-83
2020/12/18 10:45:28;;;;;;;20.88;11.20;;;;;;;3.77;86.11;97753.61;1787582;80;21104;-83
2020/12/18 10:47:55;;;;;;;20.45;11.93;;;;;;;3.81;86.06;97751.70;1787700;80;21681;-84
2020/12/18 10:50:22;;;;;;;30.30;14.05;;;;;;;3.84;86.07;97753.09;1787630;80;21141;-83
2020/12/18 10:52:49;;;;;;;22.85;10.68;;;;;;;3.86;86.14;97752.37;1787585;80;21507;-83
2020/12/18 10:55:17;;;;;;;18.23;11.08;;;;;;;3.91;86.19;97747.31;1787569;80;21499;-83
2020/12/18 10:57:45;;;;;;;26.77;12.82;;;;;;;3.92;86.25;97750.23;1787738;80;21262;-83
2020/12/18 11:00:12;;;;;;;23.15;11.95;;;;;;;3.96;86.33;97745.39;1787638;80;21135;-83
2020/12/18 11:02:39;;;;;;;21.02;11.38;;;;;;;4.00;86.33;97744.77;1787768;80;21289;-83
2020/12/18 11:05:06;;;;;;;23.25;12.33;;;;;;;4.03;86.34;97743.02;1787544;80;21167;-83
2020/12/18 11:07:33;;;;;;;22.65;12.58;;;;;;;4.07;86.28;97744.72;1787636;80;21131;-83
2020/12/18 11:10:01;;;;;;;22.00;12.10;;;;;;;4.08;86.26;97744.54;1787641;80;21178;-83
2020/12/18 11:12:29;;;;;;;25.35;13.25;;;;;;;4.10;86.24;97751.69;1787074;80;21535;-84
2020/12/18 11:14:56;;;;;;;23.00;12.58;;;;;;;4.10;86.24;97746.44;1787615;80;21147;-83
2020/12/18 11:17:23;;;;;;;27.82;15.15;;;;;;;4.11;86.42;97740.17;1787599;80;21190;-84
2020/12/18 11:19:50;;;;;;;30.08;15.10;;;;;;;4.15;86.65;97745.30;1787940;80;21286;-83
2020/12/18 11:22:18;;;;;;;25.12;14.60;;;;;;;4.17;86.62;97736.70;1787087;80;21162;-83
2020/12/18 11:24:45;;;;;;;24.47;13.80;;;;;;;4.20;86.57;97741.23;1787160;80;21507;-84
2020/12/18 11:27:12;;;;;;;26.20;15.85;;;;;;;4.22;86.60;97737.89;1787090;80;21516;-83
2020/12/18 11:29:39;;;;;;;25.62;15.50;;;;;;;4.25;86.75;97736.17;1787125;80;21487;-83
2020/12/18 11:32:07;;;;;;;23.95;13.90;;;;;;;4.26;86.88;97737.78;1786905;80;21152;-83
2020/12/18 11:34:33;;;;;;;27.67;15.13;;;;;;;4.25;86.60;97741.42;1787076;80;21156;-84
2020/12/18 11:37:01;;;;;;;24.90;14.78;;;;;;;4.18;86.22;97733.06;1760726;80;21116;-83
2020/12/18 11:39:30;;;;;;;24.20;15.23;;;;;;;4.14;86.20;97735.81;1760691;80;21479;-83